sensor_id;sensor_type;location;lat;lon;timestamp;P1;durP1;ratioP1;P2;durP2;ratioP2
57969;SDS011;43777;42.656;23.264;2022-08-05T00:01:13;5.40;;;4.88;;
57969;SDS011;43777;42.656;23.264;2022-08-05T00:03:40;5.63;;;5.13;;
57969;SDS011;43777;42.656;23.264;2022-08-05T00:06:07;5.65;;;4.93;;
57969;SDS011;43777;42.656;23.264;2022-08-05T00:08:33;7.40;;;5.05;;
57969;SDS011;43777;42.656;23.264;2022-08-05T00:11:00;5.72;;;4.63;;
57969;SDS011;43777;42.656;23.264;2022-08-05T00:13:30;5.45;;;4.95;;
57969;SDS011;43777;42.656;23.264;2022-08-05T00:15:56;5.97;;;5.38;;
57969;SDS011;43777;42.656;23.264;2022-08-05T00:18:22;7.95;;;5.28;;
57969;SDS011;43777;42.656;23.264;2022-08-05T00:20:49;6.38;;;5.43;;
57969;SDS011;43777;42.656;23.264;2022-08-05T00:23:15;6.00;;;5.50;;
57969;SDS011;43777;42.656;23.264;2022-08-05T00:25:41;5.95;;;5.18;;
57969;SDS011;43777;42.656;23.264;2022-08-05T00:28:07;5.65;;;5.05;;
57969;SDS011;43777;42.656;23.264;2022-08-05T00:30:33;6.65;;;5.53;;
57969;SDS011;43777;42.656;23.264;2022-08-05T00:32:59;5.85;;;5.35;;
57969;SDS011;43777;42.656;23.264;2022-08-05T00:35:25;6.00;;;5.38;;
57969;SDS011;43777;42.656;23.264;2022-08-05T00:37:51;7.70;;;5.13;;
57969;SDS011;43777;42.656;23.264;2022-08-05T00:40:18;5.82;;;5.32;;
57969;SDS011;43777;42.656;23.264;2022-08-05T00:42:44;5.80;;;5.25;;
57969;SDS011;43777;42.656;23.264;2022-08-05T00:45:10;5.95;;;5.35;;
57969;SDS011;43777;42.656;23.264;2022-08-05T00:47:37;6.28;;;5.68;;
57969;SDS011;43777;42.656;23.264;2022-08-05T00:50:04;5.80;;;5.10;;
57969;SDS011;43777;42.656;23.264;2022-08-05T00:52:31;5.85;;;4.82;;
57969;SDS011;43777;42.656;23.264;2022-08-05T00:54:57;5.70;;;5.18;;
57969;SDS011;43777;42.656;23.264;2022-08-05T00:57:23;6.00;;;5.43;;
57969;SDS011;43777;42.656;23.264;2022-08-05T00:59:49;6.63;;;5.47;;
57969;SDS011;43777;42.656;23.264;2022-08-05T01:02:15;6.30;;;5.70;;
57969;SDS011;43777;42.656;23.264;2022-08-05T01:04:41;6.07;;;5.57;;
57969;SDS011;43777;42.656;23.264;2022-08-05T01:07:07;5.85;;;5.38;;
57969;SDS011;43777;42.656;23.264;2022-08-05T01:09:33;6.85;;;5.28;;
57969;SDS011;43777;42.656;23.264;2022-08-05T01:12:01;6.68;;;5.45;;
57969;SDS011;43777;42.656;23.264;2022-08-05T01:14:36;7.22;;;5.60;;
57969;SDS011;43777;42.656;23.264;2022-08-05T01:17:05;6.55;;;5.55;;
57969;SDS011;43777;42.656;23.264;2022-08-05T01:19:35;7.75;;;5.75;;
57969;SDS011;43777;42.656;23.264;2022-08-05T01:27:02;7.72;;;5.75;;
57969;SDS011;43777;42.656;23.264;2022-08-05T01:29:35;5.55;;;5.05;;
57969;SDS011;43777;42.656;23.264;2022-08-05T01:32:03;6.93;;;5.93;;
57969;SDS011;43777;42.656;23.264;2022-08-05T01:34:32;6.22;;;5.63;;
57969;SDS011;43777;42.656;23.264;2022-08-05T01:37:14;6.40;;;5.63;;
57969;SDS011;43777;42.656;23.264;2022-08-05T01:39:41;6.43;;;5.65;;
57969;SDS011;43777;42.656;23.264;2022-08-05T01:42:09;6.53;;;5.88;;
57969;SDS011;43777;42.656;23.264;2022-08-05T01:44:37;6.40;;;5.80;;
57969;SDS011;43777;42.656;23.264;2022-08-05T01:47:04;6.72;;;6.00;;
57969;SDS011;43777;42.656;23.264;2022-08-05T01:49:31;7.80;;;6.38;;
57969;SDS011;43777;42.656;23.264;2022-08-05T01:51:58;6.93;;;6.20;;
57969;SDS011;43777;42.656;23.264;2022-08-05T01:54:27;6.43;;;5.78;;
57969;SDS011;43777;42.656;23.264;2022-08-05T01:56:54;7.15;;;6.45;;
57969;SDS011;43777;42.656;23.264;2022-08-05T01:59:21;6.70;;;6.10;;
57969;SDS011;43777;42.656;23.264;2022-08-05T02:01:48;6.35;;;5.85;;
57969;SDS011;43777;42.656;23.264;2022-08-05T02:04:15;6.82;;;6.22;;
57969;SDS011;43777;42.656;23.264;2022-08-05T02:06:42;6.97;;;6.38;;
57969;SDS011;43777;42.656;23.264;2022-08-05T02:09:08;7.43;;;6.63;;
57969;SDS011;43777;42.656;23.264;2022-08-05T02:11:36;6.53;;;5.93;;
57969;SDS011;43777;42.656;23.264;2022-08-05T02:14:12;6.90;;;6.20;;
57969;SDS011;43777;42.656;23.264;2022-08-05T02:21:47;6.85;;;6.20;;
57969;SDS011;43777;42.656;23.264;2022-08-05T02:24:17;8.75;;;6.35;;
57969;SDS011;43777;42.656;23.264;2022-08-05T02:26:48;7.32;;;6.70;;
57969;SDS011;43777;42.656;23.264;2022-08-05T02:29:15;6.97;;;6.30;;
57969;SDS011;43777;42.656;23.264;2022-08-05T02:31:42;7.22;;;6.53;;
57969;SDS011;43777;42.656;23.264;2022-08-05T02:34:09;6.75;;;6.07;;
57969;SDS011;43777;42.656;23.264;2022-08-05T02:36:38;7.07;;;6.47;;
57969;SDS011;43777;42.656;23.264;2022-08-05T02:39:06;7.07;;;6.47;;
57969;SDS011;43777;42.656;23.264;2022-08-05T02:41:34;8.10;;;6.40;;
57969;SDS011;43777;42.656;23.264;2022-08-05T02:44:00;7.10;;;6.45;;
57969;SDS011;43777;42.656;23.264;2022-08-05T02:46:27;8.23;;;7.07;;
57969;SDS011;43777;42.656;23.264;2022-08-05T02:48:54;7.30;;;6.57;;
57969;SDS011;43777;42.656;23.264;2022-08-05T02:51:21;7.13;;;6.43;;
57969;SDS011;43777;42.656;23.264;2022-08-05T02:53:47;7.45;;;6.75;;
57969;SDS011;43777;42.656;23.264;2022-08-05T02:56:14;8.30;;;7.15;;
57969;SDS011;43777;42.656;23.264;2022-08-05T02:58:41;7.38;;;6.22;;
57969;SDS011;43777;42.656;23.264;2022-08-05T03:01:09;7.93;;;6.93;;
57969;SDS011;43777;42.656;23.264;2022-08-05T03:03:38;10.23;;;6.18;;
57969;SDS011;43777;42.656;23.264;2022-08-05T03:06:04;7.97;;;6.32;;
57969;SDS011;43777;42.656;23.264;2022-08-05T03:08:30;7.38;;;6.55;;
57969;SDS011;43777;42.656;23.264;2022-08-05T03:10:57;7.45;;;6.78;;
57969;SDS011;43777;42.656;23.264;2022-08-05T03:13:23;7.57;;;6.88;;
57969;SDS011;43777;42.656;23.264;2022-08-05T03:15:49;8.95;;;6.30;;
57969;SDS011;43777;42.656;23.264;2022-08-05T03:18:15;8.73;;;6.53;;
57969;SDS011;43777;42.656;23.264;2022-08-05T03:20:41;6.78;;;6.13;;
57969;SDS011;43777;42.656;23.264;2022-08-05T03:23:08;6.95;;;6.22;;
57969;SDS011;43777;42.656;23.264;2022-08-05T03:25:35;7.70;;;6.32;;
57969;SDS011;43777;42.656;23.264;2022-08-05T03:28:02;9.55;;;6.70;;
57969;SDS011;43777;42.656;23.264;2022-08-05T03:30:29;7.00;;;6.30;;
57969;SDS011;43777;42.656;23.264;2022-08-05T03:32:59;6.60;;;6.00;;
57969;SDS011;43777;42.656;23.264;2022-08-05T03:35:26;8.27;;;5.88;;
57969;SDS011;43777;42.656;23.264;2022-08-05T03:37:54;7.28;;;5.60;;
57969;SDS011;43777;42.656;23.264;2022-08-05T03:40:21;7.28;;;6.22;;
57969;SDS011;43777;42.656;23.264;2022-08-05T03:42:47;6.68;;;6.00;;
57969;SDS011;43777;42.656;23.264;2022-08-05T03:45:13;6.47;;;5.75;;
57969;SDS011;43777;42.656;23.264;2022-08-05T03:47:39;6.25;;;5.65;;
57969;SDS011;43777;42.656;23.264;2022-08-05T03:50:05;6.93;;;5.85;;
57969;SDS011;43777;42.656;23.264;2022-08-05T03:52:33;9.35;;;5.93;;
57969;SDS011;43777;42.656;23.264;2022-08-05T03:55:07;6.55;;;5.97;;
57969;SDS011;43777;42.656;23.264;2022-08-05T03:57:35;11.38;;;6.85;;
57969;SDS011;43777;42.656;23.264;2022-08-05T04:02:30;12.63;;;7.63;;
57969;SDS011;43777;42.656;23.264;2022-08-05T04:04:57;13.45;;;7.20;;
57969;SDS011;43777;42.656;23.264;2022-08-05T04:07:23;8.82;;;6.63;;
57969;SDS011;43777;42.656;23.264;2022-08-05T04:09:49;9.93;;;7.72;;
57969;SDS011;43777;42.656;23.264;2022-08-05T04:12:16;10.75;;;6.90;;
57969;SDS011;43777;42.656;23.264;2022-08-05T04:14:42;17.05;;;7.70;;
57969;SDS011;43777;42.656;23.264;2022-08-05T04:17:08;13.38;;;8.65;;
57969;SDS011;43777;42.656;23.264;2022-08-05T04:19:42;11.38;;;7.22;;
57969;SDS011;43777;42.656;23.264;2022-08-05T04:22:09;23.77;;;7.57;;
57969;SDS011;43777;42.656;23.264;2022-08-05T04:24:43;10.85;;;6.90;;
57969;SDS011;43777;42.656;23.264;2022-08-05T04:27:10;24.38;;;8.60;;
57969;SDS011;43777;42.656;23.264;2022-08-05T04:29:36;16.33;;;8.10;;
57969;SDS011;43777;42.656;23.264;2022-08-05T04:32:02;11.90;;;8.07;;
57969;SDS011;43777;42.656;23.264;2022-08-05T04:34:28;8.50;;;7.70;;
57969;SDS011;43777;42.656;23.264;2022-08-05T04:36:54;11.27;;;7.85;;
57969;SDS011;43777;42.656;23.264;2022-08-05T04:39:20;11.10;;;8.52;;
57969;SDS011;43777;42.656;23.264;2022-08-05T04:41:46;16.50;;;9.18;;
57969;SDS011;43777;42.656;23.264;2022-08-05T04:44:13;13.43;;;8.45;;
57969;SDS011;43777;42.656;23.264;2022-08-05T04:46:39;13.93;;;8.43;;
57969;SDS011;43777;42.656;23.264;2022-08-05T04:49:05;13.88;;;9.68;;
57969;SDS011;43777;42.656;23.264;2022-08-05T04:51:31;48.97;;;11.60;;
57969;SDS011;43777;42.656;23.264;2022-08-05T04:53:58;19.38;;;9.52;;
57969;SDS011;43777;42.656;23.264;2022-08-05T04:56:24;13.85;;;9.23;;
57969;SDS011;43777;42.656;23.264;2022-08-05T04:58:50;101.57;;;16.05;;
57969;SDS011;43777;42.656;23.264;2022-08-05T05:01:16;35.78;;;10.18;;
57969;SDS011;43777;42.656;23.264;2022-08-05T05:03:42;24.42;;;8.98;;
57969;SDS011;43777;42.656;23.264;2022-08-05T05:06:09;25.27;;;9.10;;
57969;SDS011;43777;42.656;23.264;2022-08-05T05:08:35;30.95;;;8.75;;
57969;SDS011;43777;42.656;23.264;2022-08-05T05:11:01;19.05;;;8.10;;
57969;SDS011;43777;42.656;23.264;2022-08-05T05:13:28;15.18;;;8.52;;
57969;SDS011;43777;42.656;23.264;2022-08-05T05:15:54;11.60;;;8.70;;
57969;SDS011;43777;42.656;23.264;2022-08-05T05:18:20;16.40;;;9.98;;
57969;SDS011;43777;42.656;23.264;2022-08-05T05:20:46;13.95;;;9.65;;
57969;SDS011;43777;42.656;23.264;2022-08-05T05:23:12;16.60;;;10.15;;
57969;SDS011;43777;42.656;23.264;2022-08-05T05:25:39;17.45;;;10.15;;
57969;SDS011;43777;42.656;23.264;2022-08-05T05:28:05;13.60;;;9.15;;
57969;SDS011;43777;42.656;23.264;2022-08-05T05:30:31;14.43;;;9.60;;
57969;SDS011;43777;42.656;23.264;2022-08-05T05:32:58;19.88;;;9.55;;
57969;SDS011;43777;42.656;23.264;2022-08-05T05:35:25;13.43;;;9.02;;
57969;SDS011;43777;42.656;23.264;2022-08-05T05:37:52;13.07;;;9.60;;
57969;SDS011;43777;42.656;23.264;2022-08-05T05:40:18;11.10;;;9.65;;
57969;SDS011;43777;42.656;23.264;2022-08-05T05:42:45;12.63;;;9.98;;
57969;SDS011;43777;42.656;23.264;2022-08-05T05:45:11;15.48;;;10.27;;
57969;SDS011;43777;42.656;23.264;2022-08-05T05:47:38;21.45;;;9.98;;
57969;SDS011;43777;42.656;23.264;2022-08-05T05:50:05;14.80;;;9.77;;
57969;SDS011;43777;42.656;23.264;2022-08-05T05:52:31;17.33;;;10.80;;
57969;SDS011;43777;42.656;23.264;2022-08-05T05:54:58;12.60;;;9.68;;
57969;SDS011;43777;42.656;23.264;2022-08-05T05:57:24;12.63;;;9.57;;
57969;SDS011;43777;42.656;23.264;2022-08-05T05:59:51;14.60;;;10.15;;
57969;SDS011;43777;42.656;23.264;2022-08-05T06:02:17;16.48;;;10.65;;
57969;SDS011;43777;42.656;23.264;2022-08-05T06:04:43;13.65;;;11.50;;
57969;SDS011;43777;42.656;23.264;2022-08-05T06:07:09;15.90;;;10.70;;
57969;SDS011;43777;42.656;23.264;2022-08-05T06:09:35;14.10;;;11.40;;
57969;SDS011;43777;42.656;23.264;2022-08-05T06:12:01;19.42;;;11.50;;
57969;SDS011;43777;42.656;23.264;2022-08-05T06:14:27;17.83;;;10.88;;
57969;SDS011;43777;42.656;23.264;2022-08-05T06:16:53;18.13;;;11.07;;
57969;SDS011;43777;42.656;23.264;2022-08-05T06:19:19;21.88;;;11.32;;
57969;SDS011;43777;42.656;23.264;2022-08-05T06:21:45;14.32;;;10.73;;
57969;SDS011;43777;42.656;23.264;2022-08-05T06:24:11;20.83;;;11.10;;
57969;SDS011;43777;42.656;23.264;2022-08-05T06:26:37;14.43;;;10.02;;
57969;SDS011;43777;42.656;23.264;2022-08-05T06:29:03;13.18;;;9.73;;
57969;SDS011;43777;42.656;23.264;2022-08-05T06:31:29;12.43;;;10.10;;
57969;SDS011;43777;42.656;23.264;2022-08-05T06:33:55;13.43;;;9.77;;
57969;SDS011;43777;42.656;23.264;2022-08-05T06:36:21;13.35;;;10.63;;
57969;SDS011;43777;42.656;23.264;2022-08-05T06:38:47;12.30;;;10.50;;
57969;SDS011;43777;42.656;23.264;2022-08-05T06:41:17;12.35;;;9.57;;
57969;SDS011;43777;42.656;23.264;2022-08-05T06:43:43;15.93;;;9.93;;
57969;SDS011;43777;42.656;23.264;2022-08-05T06:46:09;11.93;;;9.65;;
57969;SDS011;43777;42.656;23.264;2022-08-05T06:48:35;13.55;;;10.23;;
57969;SDS011;43777;42.656;23.264;2022-08-05T06:51:02;15.82;;;10.20;;
57969;SDS011;43777;42.656;23.264;2022-08-05T06:53:28;14.32;;;9.50;;
57969;SDS011;43777;42.656;23.264;2022-08-05T06:55:55;10.55;;;9.43;;
57969;SDS011;43777;42.656;23.264;2022-08-05T06:58:22;11.15;;;10.00;;
57969;SDS011;43777;42.656;23.264;2022-08-05T07:00:48;10.75;;;9.75;;
57969;SDS011;43777;42.656;23.264;2022-08-05T07:03:14;10.48;;;9.07;;
57969;SDS011;43777;42.656;23.264;2022-08-05T07:05:40;11.52;;;10.15;;
57969;SDS011;43777;42.656;23.264;2022-08-05T07:08:06;13.27;;;9.38;;
57969;SDS011;43777;42.656;23.264;2022-08-05T07:10:32;12.98;;;9.57;;
57969;SDS011;43777;42.656;23.264;2022-08-05T07:12:58;16.80;;;9.75;;
57969;SDS011;43777;42.656;23.264;2022-08-05T07:15:43;14.80;;;9.48;;
57969;SDS011;43777;42.656;23.264;2022-08-05T07:18:27;12.35;;;9.80;;
57969;SDS011;43777;42.656;23.264;2022-08-05T07:20:53;12.07;;;9.48;;
57969;SDS011;43777;42.656;23.264;2022-08-05T07:23:19;10.00;;;9.07;;
57969;SDS011;43777;42.656;23.264;2022-08-05T07:25:45;15.27;;;9.63;;
57969;SDS011;43777;42.656;23.264;2022-08-05T07:28:12;10.45;;;8.75;;
57969;SDS011;43777;42.656;23.264;2022-08-05T07:30:38;14.15;;;9.35;;
57969;SDS011;43777;42.656;23.264;2022-08-05T07:33:04;12.65;;;9.98;;
57969;SDS011;43777;42.656;23.264;2022-08-05T07:35:31;16.35;;;9.90;;
57969;SDS011;43777;42.656;23.264;2022-08-05T07:37:57;12.05;;;10.48;;
57969;SDS011;43777;42.656;23.264;2022-08-05T07:40:23;15.57;;;9.70;;
57969;SDS011;43777;42.656;23.264;2022-08-05T07:42:49;14.68;;;10.02;;
57969;SDS011;43777;42.656;23.264;2022-08-05T07:45:15;14.13;;;10.77;;
57969;SDS011;43777;42.656;23.264;2022-08-05T07:47:41;12.95;;;10.18;;
57969;SDS011;43777;42.656;23.264;2022-08-05T07:50:07;10.30;;;9.40;;
57969;SDS011;43777;42.656;23.264;2022-08-05T07:52:40;17.20;;;10.18;;
57969;SDS011;43777;42.656;23.264;2022-08-05T07:55:07;13.82;;;9.13;;
57969;SDS011;43777;42.656;23.264;2022-08-05T07:57:33;10.13;;;8.80;;
57969;SDS011;43777;42.656;23.264;2022-08-05T07:59:59;10.73;;;9.32;;
57969;SDS011;43777;42.656;23.264;2022-08-05T08:02:25;11.77;;;9.40;;
57969;SDS011;43777;42.656;23.264;2022-08-05T08:04:52;18.63;;;10.20;;
57969;SDS011;43777;42.656;23.264;2022-08-05T08:07:18;14.75;;;8.57;;
57969;SDS011;43777;42.656;23.264;2022-08-05T08:09:45;11.32;;;9.35;;
57969;SDS011;43777;42.656;23.264;2022-08-05T08:12:11;14.63;;;9.38;;
57969;SDS011;43777;42.656;23.264;2022-08-05T08:14:38;14.25;;;8.90;;
57969;SDS011;43777;42.656;23.264;2022-08-05T08:17:04;9.90;;;8.82;;
57969;SDS011;43777;42.656;23.264;2022-08-05T08:19:38;11.50;;;8.10;;
57969;SDS011;43777;42.656;23.264;2022-08-05T08:22:04;12.93;;;7.30;;
57969;SDS011;43777;42.656;23.264;2022-08-05T08:24:31;10.88;;;6.80;;
57969;SDS011;43777;42.656;23.264;2022-08-05T08:26:57;12.98;;;8.00;;
57969;SDS011;43777;42.656;23.264;2022-08-05T08:29:23;8.95;;;8.02;;
57969;SDS011;43777;42.656;23.264;2022-08-05T08:31:50;10.77;;;7.80;;
57969;SDS011;43777;42.656;23.264;2022-08-05T08:34:17;9.10;;;7.63;;
57969;SDS011;43777;42.656;23.264;2022-08-05T08:36:43;13.00;;;8.35;;
57969;SDS011;43777;42.656;23.264;2022-08-05T08:39:09;9.20;;;6.88;;
57969;SDS011;43777;42.656;23.264;2022-08-05T08:41:35;8.52;;;6.95;;
57969;SDS011;43777;42.656;23.264;2022-08-05T08:44:02;12.75;;;7.35;;
57969;SDS011;43777;42.656;23.264;2022-08-05T08:46:30;12.40;;;8.30;;
57969;SDS011;43777;42.656;23.264;2022-08-05T08:48:57;10.02;;;7.38;;
57969;SDS011;43777;42.656;23.264;2022-08-05T08:51:23;8.75;;;7.22;;
57969;SDS011;43777;42.656;23.264;2022-08-05T08:53:52;8.50;;;6.78;;
57969;SDS011;43777;42.656;23.264;2022-08-05T08:56:18;7.85;;;6.07;;
57969;SDS011;43777;42.656;23.264;2022-08-05T08:58:45;7.97;;;6.75;;
57969;SDS011;43777;42.656;23.264;2022-08-05T09:01:11;8.75;;;7.38;;
57969;SDS011;43777;42.656;23.264;2022-08-05T09:03:39;9.85;;;7.70;;
57969;SDS011;43777;42.656;23.264;2022-08-05T09:06:05;14.63;;;7.53;;
57969;SDS011;43777;42.656;23.264;2022-08-05T09:08:31;7.82;;;6.95;;
57969;SDS011;43777;42.656;23.264;2022-08-05T09:10:57;9.77;;;6.60;;
57969;SDS011;43777;42.656;23.264;2022-08-05T09:13:24;6.10;;;5.60;;
57969;SDS011;43777;42.656;23.264;2022-08-05T09:15:50;6.57;;;5.85;;
57969;SDS011;43777;42.656;23.264;2022-08-05T09:18:17;6.82;;;6.15;;
57969;SDS011;43777;42.656;23.264;2022-08-05T09:20:43;12.52;;;6.55;;
57969;SDS011;43777;42.656;23.264;2022-08-05T09:23:17;7.30;;;6.53;;
57969;SDS011;43777;42.656;23.264;2022-08-05T09:25:45;11.35;;;6.60;;
57969;SDS011;43777;42.656;23.264;2022-08-05T09:28:21;14.05;;;6.32;;
57969;SDS011;43777;42.656;23.264;2022-08-05T09:33:20;9.48;;;4.68;;
57969;SDS011;43777;42.656;23.264;2022-08-05T09:38:55;5.20;;;4.70;;
57969;SDS011;43777;42.656;23.264;2022-08-05T09:41:21;7.45;;;5.15;;
57969;SDS011;43777;42.656;23.264;2022-08-05T09:43:47;6.18;;;5.00;;
57969;SDS011;43777;42.656;23.264;2022-08-05T09:46:24;5.80;;;5.30;;
57969;SDS011;43777;42.656;23.264;2022-08-05T09:48:51;5.47;;;4.97;;
57969;SDS011;43777;42.656;23.264;2022-08-05T09:51:27;6.55;;;5.95;;
57969;SDS011;43777;42.656;23.264;2022-08-05T09:53:55;6.40;;;5.80;;
57969;SDS011;43777;42.656;23.264;2022-08-05T09:56:26;7.07;;;5.95;;
57969;SDS011;43777;42.656;23.264;2022-08-05T10:01:28;6.45;;;5.60;;
57969;SDS011;43777;42.656;23.264;2022-08-05T10:04:02;10.93;;;6.35;;
57969;SDS011;43777;42.656;23.264;2022-08-05T10:06:29;6.53;;;5.93;;
57969;SDS011;43777;42.656;23.264;2022-08-05T10:09:03;7.53;;;5.65;;
57969;SDS011;43777;42.656;23.264;2022-08-05T10:11:34;7.50;;;5.85;;
57969;SDS011;43777;42.656;23.264;2022-08-05T10:14:03;6.18;;;5.57;;
57969;SDS011;43777;42.656;23.264;2022-08-05T10:16:45;6.88;;;6.25;;
57969;SDS011;43777;42.656;23.264;2022-08-05T10:19:11;7.50;;;6.80;;
57969;SDS011;43777;42.656;23.264;2022-08-05T10:21:38;6.47;;;5.97;;
57969;SDS011;43777;42.656;23.264;2022-08-05T10:24:04;9.35;;;5.80;;
57969;SDS011;43777;42.656;23.264;2022-08-05T10:26:31;9.90;;;6.40;;
57969;SDS011;43777;42.656;23.264;2022-08-05T10:28:57;7.20;;;5.82;;
57969;SDS011;43777;42.656;23.264;2022-08-05T10:31:23;7.55;;;5.72;;
57969;SDS011;43777;42.656;23.264;2022-08-05T10:33:49;10.15;;;6.35;;
57969;SDS011;43777;42.656;23.264;2022-08-05T10:36:15;6.55;;;5.90;;
57969;SDS011;43777;42.656;23.264;2022-08-05T10:38:43;10.57;;;6.15;;
57969;SDS011;43777;42.656;23.264;2022-08-05T10:43:51;6.55;;;5.95;;
57969;SDS011;43777;42.656;23.264;2022-08-05T10:46:20;8.18;;;6.95;;
57969;SDS011;43777;42.656;23.264;2022-08-05T10:48:47;6.05;;;5.45;;
57969;SDS011;43777;42.656;23.264;2022-08-05T10:51:14;6.72;;;6.03;;
57969;SDS011;43777;42.656;23.264;2022-08-05T10:56:18;24.10;;;6.68;;
57969;SDS011;43777;42.656;23.264;2022-08-05T11:01:13;6.35;;;5.80;;
57969;SDS011;43777;42.656;23.264;2022-08-05T11:03:58;9.65;;;6.35;;
57969;SDS011;43777;42.656;23.264;2022-08-05T11:06:24;7.00;;;6.40;;
57969;SDS011;43777;42.656;23.264;2022-08-05T11:09:24;6.85;;;6.15;;
57969;SDS011;43777;42.656;23.264;2022-08-05T11:11:43;9.75;;;6.10;;
57969;SDS011;43777;42.656;23.264;2022-08-05T11:14:11;7.20;;;6.35;;
57969;SDS011;43777;42.656;23.264;2022-08-05T11:16:37;7.20;;;6.63;;
57969;SDS011;43777;42.656;23.264;2022-08-05T11:21:49;6.70;;;6.20;;
57969;SDS011;43777;42.656;23.264;2022-08-05T11:24:15;18.23;;;6.80;;
57969;SDS011;43777;42.656;23.264;2022-08-05T11:26:41;7.63;;;6.82;;
57969;SDS011;43777;42.656;23.264;2022-08-05T11:29:07;7.45;;;5.75;;
57969;SDS011;43777;42.656;23.264;2022-08-05T11:32:17;6.50;;;5.88;;
57969;SDS011;43777;42.656;23.264;2022-08-05T11:34:40;10.18;;;6.47;;
57969;SDS011;43777;42.656;23.264;2022-08-05T11:37:06;6.47;;;5.97;;
57969;SDS011;43777;42.656;23.264;2022-08-05T11:39:45;7.07;;;6.47;;
57969;SDS011;43777;42.656;23.264;2022-08-05T11:42:12;7.43;;;6.45;;
57969;SDS011;43777;42.656;23.264;2022-08-05T11:44:38;8.07;;;6.65;;
57969;SDS011;43777;42.656;23.264;2022-08-05T11:47:05;7.40;;;6.55;;
57969;SDS011;43777;42.656;23.264;2022-08-05T11:49:31;10.52;;;6.90;;
57969;SDS011;43777;42.656;23.264;2022-08-05T11:51:57;6.78;;;6.18;;
57969;SDS011;43777;42.656;23.264;2022-08-05T11:54:28;8.55;;;6.47;;
57969;SDS011;43777;42.656;23.264;2022-08-05T11:56:56;8.65;;;6.53;;
57969;SDS011;43777;42.656;23.264;2022-08-05T11:59:28;7.68;;;6.93;;
57969;SDS011;43777;42.656;23.264;2022-08-05T12:04:28;11.35;;;;;
57969;SDS011;43777;42.656;23.264;2022-08-05T12:07:02;8.50;;;6.13;;
57969;SDS011;43777;42.656;23.264;2022-08-05T12:09:28;7.38;;;6.18;;
57969;SDS011;43777;42.656;23.264;2022-08-05T12:11:56;7.32;;;6.07;;
57969;SDS011;43777;42.656;23.264;2022-08-05T12:14:22;10.68;;;6.88;;
57969;SDS011;43777;42.656;23.264;2022-08-05T12:16:49;7.00;;;6.30;;
57969;SDS011;43777;42.656;23.264;2022-08-05T12:19:15;7.00;;;6.40;;
57969;SDS011;43777;42.656;23.264;2022-08-05T12:21:46;6.95;;;6.35;;
57969;SDS011;43777;42.656;23.264;2022-08-05T12:24:16;6.78;;;6.25;;
57969;SDS011;43777;42.656;23.264;2022-08-05T12:26:49;6.90;;;6.30;;
57969;SDS011;43777;42.656;23.264;2022-08-05T12:34:15;7.05;;;6.25;;
57969;SDS011;43777;42.656;23.264;2022-08-05T12:36:41;9.68;;;6.57;;
57969;SDS011;43777;42.656;23.264;2022-08-05T12:39:07;12.40;;;6.43;;
57969;SDS011;43777;42.656;23.264;2022-08-05T12:41:34;7.38;;;6.68;;
57969;SDS011;43777;42.656;23.264;2022-08-05T12:44:08;9.60;;;7.53;;
57969;SDS011;43777;42.656;23.264;2022-08-05T12:46:35;8.52;;;6.45;;
57969;SDS011;43777;42.656;23.264;2022-08-05T12:49:04;9.88;;;6.70;;
57969;SDS011;43777;42.656;23.264;2022-08-05T12:51:30;8.25;;;6.60;;
57969;SDS011;43777;42.656;23.264;2022-08-05T12:53:58;8.95;;;6.25;;
57969;SDS011;43777;42.656;23.264;2022-08-05T12:56:24;8.55;;;6.57;;
57969;SDS011;43777;42.656;23.264;2022-08-05T12:59:10;7.00;;;6.40;;
57969;SDS011;43777;42.656;23.264;2022-08-05T13:01:37;8.18;;;6.65;;
57969;SDS011;43777;42.656;23.264;2022-08-05T13:04:03;9.90;;;8.90;;
57969;SDS011;43777;42.656;23.264;2022-08-05T13:06:30;19.25;;;8.00;;
57969;SDS011;43777;42.656;23.264;2022-08-05T13:08:56;8.00;;;6.90;;
57969;SDS011;43777;42.656;23.264;2022-08-05T13:11:22;9.63;;;8.52;;
57969;SDS011;43777;42.656;23.264;2022-08-05T13:13:48;8.05;;;7.38;;
57969;SDS011;43777;42.656;23.264;2022-08-05T13:16:14;14.55;;;12.65;;
57969;SDS011;43777;42.656;23.264;2022-08-05T13:18:50;9.82;;;7.85;;
57969;SDS011;43777;42.656;23.264;2022-08-05T13:21:17;10.15;;;6.90;;
57969;SDS011;43777;42.656;23.264;2022-08-05T13:23:43;9.38;;;7.50;;
57969;SDS011;43777;42.656;23.264;2022-08-05T13:26:09;8.50;;;7.45;;
57969;SDS011;43777;42.656;23.264;2022-08-05T13:28:35;9.50;;;7.70;;
57969;SDS011;43777;42.656;23.264;2022-08-05T13:31:01;8.13;;;6.90;;
57969;SDS011;43777;42.656;23.264;2022-08-05T13:33:27;7.30;;;6.60;;
57969;SDS011;43777;42.656;23.264;2022-08-05T13:35:53;7.55;;;6.78;;
57969;SDS011;43777;42.656;23.264;2022-08-05T13:38:19;8.90;;;6.60;;
57969;SDS011;43777;42.656;23.264;2022-08-05T13:40:45;7.55;;;6.78;;
57969;SDS011;43777;42.656;23.264;2022-08-05T13:43:11;7.38;;;6.78;;
57969;SDS011;43777;42.656;23.264;2022-08-05T13:45:38;7.00;;;6.35;;
57969;SDS011;43777;42.656;23.264;2022-08-05T13:48:04;14.82;;;6.60;;
57969;SDS011;43777;42.656;23.264;2022-08-05T13:50:30;6.75;;;6.15;;
57969;SDS011;43777;42.656;23.264;2022-08-05T13:52:56;6.80;;;6.30;;
57969;SDS011;43777;42.656;23.264;2022-08-05T13:55:22;8.05;;;7.22;;
57969;SDS011;43777;42.656;23.264;2022-08-05T13:57:48;6.47;;;5.90;;
57969;SDS011;43777;42.656;23.264;2022-08-05T14:00:14;7.28;;;6.38;;
57969;SDS011;43777;42.656;23.264;2022-08-05T14:02:40;6.95;;;6.35;;
57969;SDS011;43777;42.656;23.264;2022-08-05T14:05:06;7.38;;;6.72;;
57969;SDS011;43777;42.656;23.264;2022-08-05T14:07:39;8.07;;;6.32;;
57969;SDS011;43777;42.656;23.264;2022-08-05T14:10:15;7.50;;;6.68;;
57969;SDS011;43777;42.656;23.264;2022-08-05T14:12:42;9.52;;;6.72;;
57969;SDS011;43777;42.656;23.264;2022-08-05T14:15:08;6.20;;;5.60;;
57969;SDS011;43777;42.656;23.264;2022-08-05T14:17:35;6.72;;;6.13;;
57969;SDS011;43777;42.656;23.264;2022-08-05T14:20:01;6.28;;;5.60;;
57969;SDS011;43777;42.656;23.264;2022-08-05T14:22:28;11.57;;;5.97;;
57969;SDS011;43777;42.656;23.264;2022-08-05T14:24:54;8.98;;;5.93;;
57969;SDS011;43777;42.656;23.264;2022-08-05T14:27:20;7.55;;;6.22;;
57969;SDS011;43777;42.656;23.264;2022-08-05T14:29:46;12.68;;;6.38;;
57969;SDS011;43777;42.656;23.264;2022-08-05T14:32:12;6.70;;;6.13;;
57969;SDS011;43777;42.656;23.264;2022-08-05T14:34:38;8.32;;;6.53;;
57969;SDS011;43777;42.656;23.264;2022-08-05T14:37:04;6.50;;;5.93;;
57969;SDS011;43777;42.656;23.264;2022-08-05T14:39:31;6.82;;;6.32;;
57969;SDS011;43777;42.656;23.264;2022-08-05T14:41:57;6.53;;;5.88;;
57969;SDS011;43777;42.656;23.264;2022-08-05T14:44:23;7.57;;;6.03;;
57969;SDS011;43777;42.656;23.264;2022-08-05T14:46:49;9.32;;;5.70;;
57969;SDS011;43777;42.656;23.264;2022-08-05T14:49:15;9.70;;;6.47;;
57969;SDS011;43777;42.656;23.264;2022-08-05T14:51:41;6.78;;;6.13;;
57969;SDS011;43777;42.656;23.264;2022-08-05T14:54:08;6.55;;;6.05;;
57969;SDS011;43777;42.656;23.264;2022-08-05T14:56:34;7.47;;;5.72;;
57969;SDS011;43777;42.656;23.264;2022-08-05T14:59:00;7.07;;;5.82;;
57969;SDS011;43777;42.656;23.264;2022-08-05T15:01:26;7.38;;;6.32;;
57969;SDS011;43777;42.656;23.264;2022-08-05T15:03:53;6.13;;;5.53;;
57969;SDS011;43777;42.656;23.264;2022-08-05T15:06:19;6.70;;;5.82;;
57969;SDS011;43777;42.656;23.264;2022-08-05T15:08:45;9.60;;;6.00;;